Time;durP1;ratioP1;P1;durP2;ratioP2;P2;SDS_P1;SDS_P2;PMS_P1;PMS_P2;Temp;Humidity;BMP_temperature;BMP_pressure;BME280_temperature;BME280_humidity;BME280_pressure;Samples;Min_cycle;Max_cycle;Signal;HPM_P1;HPM_P2
2022/03/16 00:01:53;;;;;;;32.60;21.92;;;6.60;99.90;;;;;;5010502;28;20108;-62
2022/03/16 00:04:19;;;;;;;35.47;23.00;;;6.60;99.90;;;;;;4995540;28;20046;-63
2022/03/16 00:06:45;;;;;;;35.30;23.77;;;6.60;99.90;;;;;;4995200;28;20066;-64
2022/03/16 00:09:10;;;;;;;34.70;22.60;;;6.60;99.90;;;;;;4995068;28;20048;-62
2022/03/16 00:11:36;;;;;;;32.05;22.85;;;6.50;99.90;;;;;;4995848;28;20133;-63
2022/03/16 00:14:02;;;;;;;35.50;22.77;;;6.50;99.90;;;;;;5014861;28;20046;-62
2022/03/16 00:16:27;;;;;;;35.58;22.45;;;6.40;99.90;;;;;;5014615;28;20042;-62
2022/03/16 00:18:53;;;;;;;34.95;22.55;;;6.40;99.90;;;;;;5014487;28;20041;-63
2022/03/16 00:21:19;;;;;;;38.42;23.65;;;6.40;99.90;;;;;;5014459;28;20038;-63
2022/03/16 00:23:44;;;;;;;34.10;23.77;;;6.40;99.90;;;;;;4995799;28;20081;-62
2022/03/16 00:26:10;;;;;;;36.67;24.20;;;6.40;99.90;;;;;;4994924;28;20057;-62
2022/03/16 00:28:35;;;;;;;37.40;24.17;;;6.30;99.90;;;;;;4994719;28;20108;-63
2022/03/16 00:31:04;;;;;;;38.33;23.40;;;6.30;99.90;;;;;;4994515;28;20038;-62
2022/03/16 00:33:30;;;;;;;35.00;24.48;;;6.20;99.90;;;;;;5011638;28;20125;-63
2022/03/16 00:35:56;;;;;;;42.25;24.50;;;6.20;99.90;;;;;;5014441;28;20117;-63
2022/03/16 00:38:21;;;;;;;33.92;23.33;;;6.20;99.90;;;;;;5014487;28;20109;-62
2022/03/16 00:40:47;;;;;;;39.80;24.85;;;6.20;99.90;;;;;;5014440;28;20466;-62
2022/03/16 00:43:14;;;;;;;33.35;24.33;;;6.20;99.90;;;;;;5013684;28;20057;-62
2022/03/16 00:45:40;;;;;;;39.60;23.25;;;6.20;99.90;;;;;;4996943;28;20049;-63
2022/03/16 00:48:05;;;;;;;37.55;23.90;;;6.20;99.90;;;;;;5014081;28;20120;-64
2022/03/16 00:50:32;;;;;;;34.40;23.60;;;6.20;99.90;;;;;;5014393;28;20504;-62
2022/03/16 00:52:59;;;;;;;34.47;23.27;;;6.20;99.90;;;;;;5000915;28;20354;-62
2022/03/16 00:55:24;;;;;;;36.15;23.52;;;6.20;99.90;;;;;;4994593;28;20070;-62
2022/03/16 00:57:50;;;;;;;34.50;23.35;;;6.20;99.90;;;;;;4994788;28;20125;-63
2022/03/16 01:00:16;;;;;;;31.85;22.63;;;6.20;99.90;;;;;;4994820;28;20455;-63
2022/03/16 01:02:41;;;;;;;35.83;24.20;;;6.30;99.90;;;;;;4986582;28;20072;-62
2022/03/16 01:05:07;;;;;;;35.47;23.77;;;6.20;99.90;;;;;;5014274;28;20049;-63
2022/03/16 01:07:33;;;;;;;35.15;23.23;;;6.20;99.90;;;;;;5014210;28;20128;-62
2022/03/16 01:09:58;;;;;;;37.50;24.55;;;6.20;99.90;;;;;;5014119;28;20042;-62
2022/03/16 01:12:24;;;;;;;36.17;23.98;;;6.10;99.90;;;;;;5005334;28;20378;-62
2022/03/16 01:14:50;;;;;;;33.70;23.88;;;6.10;99.90;;;;;;4977079;28;20066;-62
2022/03/16 01:17:16;;;;;;;34.67;24.23;;;6.00;99.90;;;;;;4976859;28;20046;-63
2022/03/16 01:19:41;;;;;;;36.83;25.90;;;5.90;99.90;;;;;;4994368;28;20121;-61
2022/03/16 01:22:07;;;;;;;44.95;24.90;;;5.90;99.90;;;;;;4998931;28;20042;-63
2022/03/16 01:24:33;;;;;;;32.03;24.13;;;5.80;99.90;;;;;;5013864;28;20042;-62
2022/03/16 01:26:59;;;;;;;35.85;24.40;;;5.80;99.90;;;;;;5013873;28;20038;-62
2022/03/16 01:29:26;;;;;;;37.47;24.42;;;5.80;99.90;;;;;;5013827;28;20052;-62
2022/03/16 01:31:55;;;;;;;37.00;24.63;;;5.70;99.90;;;;;;4992961;28;20180;-62
2022/03/16 01:34:21;;;;;;;35.30;24.75;;;5.70;99.90;;;;;;4994411;28;20039;-61
2022/03/16 01:36:47;;;;;;;36.83;26.67;;;5.60;99.90;;;;;;4977109;28;20046;-62
2022/03/16 01:39:14;;;;;;;37.42;24.08;;;5.60;99.90;;;;;;4994199;28;20502;-61
2022/03/16 01:41:42;;;;;;;37.05;25.10;;;5.60;99.90;;;;;;4995184;28;20046;-62
2022/03/16 01:44:08;;;;;;;36.42;25.15;;;5.50;99.90;;;;;;5013754;28;20045;-63
2022/03/16 01:46:34;;;;;;;38.58;25.83;;;5.50;99.90;;;;;;5013753;28;20099;-62
2022/03/16 01:49:00;;;;;;;38.72;26.50;;;5.50;99.90;;;;;;5013742;28;20045;-62
2022/03/16 01:51:25;;;;;;;32.90;24.50;;;5.50;99.90;;;;;;5013433;28;20034;-62
2022/03/16 01:53:51;;;;;;;39.03;25.35;;;5.50;99.90;;;;;;4994436;28;20057;-63
2022/03/16 01:56:18;;;;;;;37.58;25.17;;;5.50;99.90;;;;;;4994307;28;20124;-62
2022/03/16 01:58:44;;;;;;;34.40;25.60;;;5.50;99.90;;;;;;4994106;28;20042;-63
2022/03/16 02:01:10;;;;;;;36.13;25.42;;;5.50;99.90;;;;;;4976515;28;20053;-62
2022/03/16 02:03:35;;;;;;;34.00;24.70;;;5.50;99.90;;;;;;5010737;28;20046;-63
2022/03/16 02:06:02;;;;;;;35.50;24.60;;;5.50;99.90;;;;;;5017164;28;20133;-62
2022/03/16 02:08:29;;;;;;;35.25;25.05;;;5.50;99.90;;;;;;5017191;28;20042;-62
2022/03/16 02:10:55;;;;;;;33.92;24.17;;;5.50;99.90;;;;;;5016507;28;20298;-62
2022/03/16 02:13:20;;;;;;;36.75;25.17;;;5.50;99.90;;;;;;5002107;28;20046;-61
2022/03/16 02:15:46;;;;;;;35.33;23.45;;;5.50;99.90;;;;;;4997548;28;20080;-62
2022/03/16 02:18:13;;;;;;;35.33;24.08;;;5.40;99.90;;;;;;4979808;28;20173;-62
2022/03/16 02:20:39;;;;;;;38.67;23.77;;;5.40;99.90;;;;;;4997068;28;20042;-63
2022/03/16 02:23:06;;;;;;;33.83;24.35;;;5.40;99.90;;;;;;4992211;28;20121;-63
2022/03/16 02:25:33;;;;;;;37.83;24.85;;;5.40;99.90;;;;;;5016627;28;20052;-62
2022/03/16 02:27:58;;;;;;;35.85;23.42;;;5.30;99.90;;;;;;5016829;28;20120;-64
2022/03/16 02:30:27;;;;;;;36.05;23.77;;;5.30;99.90;;;;;;5016714;28;20129;-62
2022/03/16 02:32:53;;;;;;;34.53;23.42;;;5.40;99.90;;;;;;5005318;28;20057;-63
2022/03/16 02:35:20;;;;;;;37.47;24.42;;;5.30;99.90;;;;;;4997136;28;20042;-63
2022/03/16 02:37:45;;;;;;;35.75;23.90;;;5.30;99.90;;;;;;4996929;28;20366;-62
2022/03/16 02:40:17;;;;;;;33.17;23.63;;;5.30;99.90;;;;;;4996988;28;20132;-63
2022/03/16 02:42:42;;;;;;;34.25;24.13;;;5.40;99.90;;;;;;5005985;28;20053;-62
2022/03/16 02:45:08;;;;;;;35.05;24.98;;;5.30;99.90;;;;;;5016481;28;20041;-63
2022/03/16 02:47:34;;;;;;;36.28;24.23;;;5.20;99.90;;;;;;5016354;28;20042;-62
2022/03/16 02:50:03;;;;;;;35.38;26.05;;;5.30;99.90;;;;;;5016080;28;20510;-62
2022/03/16 02:52:29;;;;;;;37.60;25.10;;;5.30;99.90;;;;;;5008234;28;20066;-61
2022/03/16 02:54:55;;;;;;;38.85;27.58;;;5.30;99.90;;;;;;4996792;28;20494;-61
2022/03/16 02:57:21;;;;;;;33.35;24.27;;;5.20;99.90;;;;;;4979724;28;20475;-62
2022/03/16 02:59:46;;;;;;;37.20;26.38;;;5.20;99.90;;;;;;4996718;28;20070;-62
2022/03/16 03:02:12;;;;;;;37.72;25.38;;;5.20;99.90;;;;;;5000931;28;20065;-62
2022/03/16 03:04:38;;;;;;;36.67;25.95;;;5.20;99.90;;;;;;5016130;28;20037;-64
2022/03/16 03:07:05;;;;;;;37.67;24.88;;;5.10;99.90;;;;;;5016050;28;20045;-62
2022/03/16 03:09:31;;;;;;;32.67;24.13;;;5.10;99.90;;;;;;5016140;28;20034;-62
2022/03/16 03:11:59;;;;;;;33.60;23.42;;;5.10;99.90;;;;;;5012097;28;20053;-63
2022/03/16 03:14:26;;;;;;;35.63;23.98;;;5.10;99.90;;;;;;4996131;28;20038;-63
2022/03/16 03:16:51;;;;;;;35.08;24.38;;;5.10;99.90;;;;;;4995561;28;20147;-64
2022/03/16 03:19:17;;;;;;;33.28;24.27;;;5.00;99.90;;;;;;4996503;28;20483;-62
2022/03/16 03:21:42;;;;;;;32.13;23.70;;;5.00;99.90;;;;;;4996816;28;20050;-61
2022/03/16 03:24:08;;;;;;;34.97;24.75;;;4.90;99.90;;;;;;5015790;28;20042;-63
2022/03/16 03:26:34;;;;;;;34.95;24.42;;;4.90;99.90;;;;;;5015616;28;20459;-62
2022/03/16 03:29:00;;;;;;;33.75;25.65;;;4.90;99.90;;;;;;5015700;28;20042;-61
2022/03/16 03:31:25;;;;;;;31.77;23.38;;;4.80;99.90;;;;;;5015067;28;20053;-62
2022/03/16 03:33:51;;;;;;;33.67;23.92;;;4.80;99.90;;;;;;5015046;28;20029;-62
2022/03/16 03:36:18;;;;;;;33.95;24.98;;;4.80;99.90;;;;;;5015629;28;20104;-64
2022/03/16 03:38:44;;;;;;;34.85;25.42;;;4.80;99.90;;;;;;5015556;28;20081;-62
2022/03/16 03:41:09;;;;;;;34.25;24.58;;;4.80;99.90;;;;;;5015114;28;20135;-63
2022/03/16 03:43:35;;;;;;;33.00;24.52;;;4.70;99.90;;;;;;4999147;28;20042;-61
2022/03/16 03:46:01;;;;;;;36.58;25.80;;;4.70;99.90;;;;;;4978488;28;20050;-63
2022/03/16 03:48:26;;;;;;;37.25;26.05;;;4.70;99.90;;;;;;4995616;28;20418;-62
2022/03/16 03:50:52;;;;;;;38.88;26.00;;;4.70;99.90;;;;;;4995324;28;20459;-63
2022/03/16 03:53:17;;;;;;;35.30;25.10;;;4.60;99.90;;;;;;5009019;28;20080;-64
2022/03/16 03:55:43;;;;;;;34.53;24.65;;;4.50;99.90;;;;;;5015216;28;20060;-62
2022/03/16 03:58:09;;;;;;;40.60;25.88;;;4.40;99.90;;;;;;5015078;28;20038;-64
2022/03/16 04:00:34;;;;;;;33.67;25.02;;;4.40;99.90;;;;;;4997581;28;20092;-62
2022/03/16 04:03:00;;;;;;;35.58;25.08;;;4.40;99.90;;;;;;5003815;28;20070;-63
2022/03/16 04:05:25;;;;;;;34.65;25.75;;;4.50;99.90;;;;;;4995594;28;20042;-62
2022/03/16 04:07:51;;;;;;;34.72;25.15;;;4.40;99.90;;;;;;4977904;28;20124;-62
2022/03/16 04:10:17;;;;;;;34.15;24.77;;;4.40;99.90;;;;;;4995253;28;20092;-62
2022/03/16 04:12:43;;;;;;;34.47;25.13;;;4.40;99.90;;;;;;4999011;28;20054;-61
2022/03/16 04:15:10;;;;;;;32.10;24.77;;;4.40;99.90;;;;;;4994105;28;20038;-64
2022/03/16 04:17:35;;;;;;;35.38;25.55;;;4.40;99.90;;;;;;4995070;28;20047;-62
2022/03/16 04:20:01;;;;;;;31.42;24.27;;;4.40;99.90;;;;;;4995318;28;20367;-62
2022/03/16 04:22:27;;;;;;;32.75;25.13;;;4.30;99.90;;;;;;4988038;28;20096;-63
2022/03/16 04:24:57;;;;;;;29.77;22.98;;;4.30;99.90;;;;;;4975666;28;20057;-62
2022/03/16 04:27:23;;;;;;;31.40;24.33;;;4.30;99.90;;;;;;4973934;28;20452;-62
2022/03/16 04:29:49;;;;;;;31.13;22.50;;;4.20;99.90;;;;;;4974544;28;20122;-62
2022/03/16 04:32:15;;;;;;;28.73;22.88;;;4.20;99.90;;;;;;4979566;28;20172;-62
2022/03/16 04:34:41;;;;;;;33.78;24.08;;;4.10;99.90;;;;;;5010214;28;20112;-64
2022/03/16 04:37:06;;;;;;;29.20;23.00;;;4.10;99.90;;;;;;4995101;28;20360;-62
2022/03/16 04:39:32;;;;;;;31.77;24.33;;;4.10;99.90;;;;;;4994137;28;20146;-63
2022/03/16 04:41:58;;;;;;;30.75;23.48;;;4.00;99.90;;;;;;4991966;28;20030;-62
2022/03/16 04:44:24;;;;;;;34.20;24.80;;;4.10;99.90;;;;;;4975063;28;20043;-62
2022/03/16 04:46:50;;;;;;;32.35;24.70;;;4.10;99.90;;;;;;4975460;28;20050;-63
2022/03/16 04:49:15;;;;;;;30.20;23.88;;;4.00;99.90;;;;;;4975494;28;20059;-62
2022/03/16 04:51:41;;;;;;;33.70;24.88;;;4.00;99.90;;;;;;4975104;28;20527;-62
2022/03/16 04:54:08;;;;;;;35.42;25.20;;;4.00;99.90;;;;;;5010060;28;20050;-62
2022/03/16 04:56:35;;;;;;;35.53;25.98;;;4.00;99.90;;;;;;4994792;28;20178;-63
2022/03/16 04:59:01;;;;;;;35.08;26.40;;;4.00;99.90;;;;;;4994817;28;20042;-62
2022/03/16 05:01:27;;;;;;;31.50;24.73;;;4.00;99.90;;;;;;4994124;28;20121;-61
2022/03/16 05:03:52;;;;;;;33.33;24.65;;;4.00;99.90;;;;;;4976601;28;20125;-63
2022/03/16 05:06:18;;;;;;;31.55;23.67;;;4.00;99.90;;;;;;4975418;28;20106;-62
2022/03/16 05:08:45;;;;;;;32.47;25.20;;;3.90;99.90;;;;;;4975249;28;20133;-62
2022/03/16 05:11:11;;;;;;;36.00;25.48;;;4.00;99.90;;;;;;4980308;28;20379;-62
2022/03/16 05:13:37;;;;;;;34.50;24.52;;;4.00;99.90;;;;;;5009911;28;20048;-63
2022/03/16 05:16:03;;;;;;;34.83;24.90;;;4.00;99.90;;;;;;5013938;28;20104;-62
2022/03/16 05:18:29;;;;;;;34.83;26.00;;;4.00;99.90;;;;;;5013946;28;20411;-62
2022/03/16 05:20:55;;;;;;;32.95;26.85;;;4.00;99.90;;;;;;5013771;28;20037;-62
2022/03/16 05:23:21;;;;;;;32.88;25.90;;;4.00;99.90;;;;;;5000494;28;20470;-63
2022/03/16 05:25:46;;;;;;;34.88;25.73;;;4.00;99.90;;;;;;4994789;28;20042;-62
2022/03/16 05:28:12;;;;;;;33.70;25.58;;;4.00;99.90;;;;;;4994455;28;20054;-62
2022/03/16 05:30:37;;;;;;;36.15;26.55;;;3.90;99.90;;;;;;4994159;28;20038;-62
2022/03/16 05:33:03;;;;;;;33.65;25.65;;;3.90;99.90;;;;;;5005029;28;20060;-62
2022/03/16 05:35:31;;;;;;;37.17;27.00;;;3.90;99.90;;;;;;5013664;28;20042;-64
2022/03/16 05:37:57;;;;;;;34.72;26.48;;;3.90;99.90;;;;;;5013797;28;20057;-64
2022/03/16 05:40:22;;;;;;;37.38;27.73;;;3.90;99.90;;;;;;5016241;28;20037;-63
2022/03/16 05:42:48;;;;;;;36.67;27.02;;;3.90;99.90;;;;;;4991534;28;20065;-62
2022/03/16 05:45:14;;;;;;;37.53;27.85;;;3.90;99.90;;;;;;4998110;28;20371;-64
2022/03/16 05:47:40;;;;;;;36.17;26.15;;;3.90;99.90;;;;;;4997726;28;20043;-62
2022/03/16 05:50:06;;;;;;;36.78;27.70;;;3.90;99.90;;;;;;4997868;28;20113;-61
2022/03/16 05:52:32;;;;;;;34.63;26.77;;;3.90;99.90;;;;;;5003659;28;20030;-63
2022/03/16 05:54:59;;;;;;;32.65;24.90;;;3.80;99.90;;;;;;5017017;28;20044;-62
2022/03/16 05:57:25;;;;;;;34.08;27.15;;;3.90;99.90;;;;;;5016466;28;20103;-62
2022/03/16 05:59:51;;;;;;;34.22;26.83;;;3.80;99.90;;;;;;4998870;28;20491;-61
2022/03/16 06:02:17;;;;;;;37.08;27.50;;;3.80;99.90;;;;;;4999739;28;20376;-62
2022/03/16 06:04:43;;;;;;;35.78;28.17;;;3.80;99.90;;;;;;4997108;28;20043;-62
2022/03/16 06:07:09;;;;;;;38.22;28.00;;;3.80;99.90;;;;;;4999967;28;20042;-62
2022/03/16 06:09:35;;;;;;;35.35;27.92;;;3.80;99.90;;;;;;4996957;28;20088;-61
2022/03/16 06:12:02;;;;;;;38.33;28.27;;;3.90;99.90;;;;;;5000255;28;20336;-62
2022/03/16 06:14:28;;;;;;;38.17;27.40;;;3.90;99.90;;;;;;5015577;28;20073;-63
2022/03/16 06:16:54;;;;;;;37.13;27.08;;;4.00;99.90;;;;;;4998780;28;20100;-62
2022/03/16 06:19:20;;;;;;;34.53;28.33;;;4.00;99.90;;;;;;4997001;28;20042;-62
2022/03/16 06:21:46;;;;;;;39.67;28.73;;;4.10;99.90;;;;;;4981660;28;20125;-62
2022/03/16 06:24:12;;;;;;;35.88;26.30;;;4.10;99.90;;;;;;4999687;28;20034;-63
2022/03/16 06:26:39;;;;;;;36.75;27.35;;;4.20;99.90;;;;;;5016379;28;20042;-64
2022/03/16 06:29:06;;;;;;;36.33;27.83;;;4.30;99.90;;;;;;4999562;28;20370;-65
2022/03/16 06:31:31;;;;;;;30.42;25.40;;;4.40;99.90;;;;;;4998973;28;20453;-62
2022/03/16 06:33:57;;;;;;;36.05;28.40;;;4.60;99.90;;;;;;4998310;28;20085;-63
2022/03/16 06:36:23;;;;;;;39.05;28.20;;;4.80;99.90;;;;;;5016514;28;20033;-63
2022/03/16 06:38:48;;;;;;;36.30;28.30;;;4.70;99.90;;;;;;5017017;28;20041;-64
2022/03/16 06:41:14;;;;;;;33.42;26.55;;;4.70;99.90;;;;;;5016197;28;20482;-63
2022/03/16 06:43:40;;;;;;;34.83;26.60;;;4.80;99.90;;;;;;5001003;28;20568;-63
2022/03/16 06:46:06;;;;;;;34.35;26.23;;;4.70;99.90;;;;;;4981473;28;20046;-62
2022/03/16 06:48:32;;;;;;;39.20;28.88;;;4.60;99.90;;;;;;5004727;28;20383;-62
2022/03/16 06:50:58;;;;;;;37.85;28.17;;;4.60;99.90;;;;;;5000386;28;20100;-66
2022/03/16 06:53:24;;;;;;;35.78;28.67;;;4.60;99.90;;;;;;5013304;28;20077;-65
2022/03/16 06:55:49;;;;;;;37.22;27.80;;;4.50;99.90;;;;;;5007287;28;20093;-67
2022/03/16 06:58:16;;;;;;;38.10;28.40;;;4.60;99.90;;;;;;4997141;28;20038;-66
2022/03/16 07:00:41;;;;;;;38.58;28.83;;;4.60;99.90;;;;;;4995909;28;20046;-63
2022/03/16 07:03:07;;;;;;;37.53;28.52;;;4.70;99.90;;;;;;5008561;28;20053;-63
2022/03/16 07:05:40;;;;;;;46.45;32.03;;;4.80;99.90;;;;;;5016119;28;20050;-63
2022/03/16 07:08:08;;;;;;;37.60;29.60;;;4.90;99.90;;;;;;5015412;28;20038;-63
2022/03/16 07:10:35;;;;;;;39.28;29.48;;;5.10;99.90;;;;;;5014528;28;20113;-64
2022/03/16 07:13:02;;;;;;;41.38;30.67;;;5.20;99.90;;;;;;5011362;28;20058;-63
2022/03/16 07:15:30;;;;;;;42.15;31.48;;;5.20;99.90;;;;;;4994914;28;20154;-64
2022/03/16 07:17:56;;;;;;;41.72;30.75;;;5.40;99.90;;;;;;4977990;28;20371;-65
2022/03/16 07:20:22;;;;;;;40.30;30.58;;;5.40;99.90;;;;;;4994783;28;20057;-62
2022/03/16 07:23:01;;;;;;;41.85;32.63;;;5.50;99.90;;;;;;4995845;28;20339;-65
2022/03/16 07:25:27;;;;;;;43.42;31.33;;;5.60;99.90;;;;;;4994625;28;20053;-62
2022/03/16 07:27:53;;;;;;;41.70;31.52;;;5.60;99.90;;;;;;5003264;28;20046;-62
2022/03/16 07:30:18;;;;;;;43.20;31.17;;;5.70;99.90;;;;;;5008837;28;20485;-64
2022/03/16 07:32:44;;;;;;;44.47;32.60;;;5.70;99.90;;;;;;5007019;28;20117;-65
2022/03/16 07:35:09;;;;;;;46.05;33.78;;;5.80;99.90;;;;;;4997763;28;20034;-63
2022/03/16 07:37:36;;;;;;;44.88;34.55;;;5.90;99.90;;;;;;4998850;28;20042;-62
2022/03/16 07:40:03;;;;;;;49.88;34.83;;;5.90;99.90;;;;;;5015661;28;20044;-63
2022/03/16 07:42:30;;;;;;;45.90;33.63;;;6.10;99.90;;;;;;5009466;28;20448;-62
2022/03/16 07:44:59;;;;;;;45.38;33.58;;;6.10;99.90;;;;;;4995703;28;20038;-63
2022/03/16 07:47:25;;;;;;;45.15;33.67;;;6.30;99.90;;;;;;4991585;28;20037;-63
2022/03/16 07:49:52;;;;;;;45.67;33.60;;;6.50;99.90;;;;;;4998084;28;20084;-61
2022/03/16 07:52:20;;;;;;;43.25;32.55;;;6.60;99.90;;;;;;4997027;28;20049;-64
2022/03/16 07:54:45;;;;;;;42.45;31.40;;;6.80;99.90;;;;;;5015346;28;20121;-63
2022/03/16 07:57:11;;;;;;;38.08;30.25;;;7.00;99.90;;;;;;5014996;28;20120;-62
2022/03/16 07:59:37;;;;;;;37.63;29.10;;;7.10;99.90;;;;;;5015038;28;20104;-62
2022/03/16 08:02:02;;;;;;;38.20;29.48;;;7.20;99.90;;;;;;5013484;28;20418;-62
2022/03/16 08:04:28;;;;;;;42.55;30.25;;;7.30;99.90;;;;;;5001394;28;20076;-62
2022/03/16 08:06:54;;;;;;;39.85;28.50;;;7.40;99.90;;;;;;4995206;28;20117;-62
2022/03/16 08:09:19;;;;;;;35.03;27.23;;;7.40;99.90;;;;;;4995089;28;20451;-63
2022/03/16 08:11:45;;;;;;;34.13;26.60;;;7.50;99.90;;;;;;4994754;28;20054;-63
2022/03/16 08:14:12;;;;;;;33.17;26.23;;;7.70;99.90;;;;;;4996155;28;20056;-63
2022/03/16 08:16:38;;;;;;;33.22;27.35;;;7.80;99.90;;;;;;5014851;28;20125;-64
2022/03/16 08:19:04;;;;;;;32.75;25.67;;;8.00;99.90;;;;;;5014662;28;20060;-63
2022/03/16 08:21:30;;;;;;;30.52;24.05;;;8.10;99.90;;;;;;4997050;28;20049;-63
2022/03/16 08:23:56;;;;;;;31.80;24.58;;;8.30;99.90;;;;;;4997854;28;20049;-62
2022/03/16 08:26:23;;;;;;;31.60;24.02;;;8.50;99.90;;;;;;4995128;28;20034;-66
2022/03/16 08:28:49;;;;;;;30.25;22.95;;;8.60;99.90;;;;;;4993519;28;20124;-65
2022/03/16 08:31:15;;;;;;;32.50;22.27;;;8.70;99.90;;;;;;4993178;28;20604;-65
2022/03/16 08:33:43;;;;;;;30.15;22.25;;;8.80;99.90;;;;;;4978625;28;20168;-64
2022/03/16 08:36:10;;;;;;;29.02;22.20;;;8.80;99.90;;;;;;4980785;28;20121;-64
2022/03/16 08:38:38;;;;;;;29.40;21.58;;;8.90;99.90;;;;;;5014581;28;20121;-63
2022/03/16 08:41:05;;;;;;;28.00;21.75;;;9.00;99.90;;;;;;5014179;28;20042;-63
2022/03/16 08:43:31;;;;;;;27.00;21.52;;;9.20;99.90;;;;;;5013475;28;20038;-63
2022/03/16 08:45:58;;;;;;;30.00;20.95;;;9.30;99.90;;;;;;5014256;28;20052;-65
2022/03/16 08:48:25;;;;;;;27.52;20.50;;;9.40;99.90;;;;;;5014399;28;20443;-62
2022/03/16 08:50:51;;;;;;;26.70;21.27;;;9.50;99.90;;;;;;5013825;28;20455;-63
2022/03/16 08:53:16;;;;;;;27.25;19.63;;;9.60;99.90;;;;;;5003379;28;20114;-63
2022/03/16 08:55:42;;;;;;;25.40;20.55;;;9.70;99.90;;;;;;4994827;28;20038;-63
2022/03/16 08:58:08;;;;;;;29.27;20.38;;;9.80;99.90;;;;;;4994561;28;20491;-64
2022/03/16 09:00:33;;;;;;;25.67;19.63;;;9.90;99.90;;;;;;4993600;28;20050;-63
2022/03/16 09:02:59;;;;;;;25.38;18.08;;;9.90;99.90;;;;;;5003108;28;20045;-64
2022/03/16 09:05:25;;;;;;;26.75;18.08;;;10.00;99.90;;;;;;4996836;28;20060;-63
2022/03/16 09:07:51;;;;;;;23.65;17.45;;;10.20;99.90;;;;;;5014217;28;20050;-63
2022/03/16 09:10:16;;;;;;;24.85;17.17;;;10.30;99.90;;;;;;5014058;28;20034;-63
2022/03/16 09:12:42;;;;;;;24.00;18.25;;;10.30;99.90;;;;;;5007371;28;20054;-62
2022/03/16 09:15:08;;;;;;;22.70;16.90;;;10.40;99.90;;;;;;4997149;28;20375;-66
2022/03/16 09:17:35;;;;;;;23.05;16.77;;;10.50;99.90;;;;;;4998375;28;20065;-63
2022/03/16 09:20:04;;;;;;;22.50;17.58;;;10.60;99.90;;;;;;4998554;28;20090;-63
2022/03/16 09:22:30;;;;;;;21.63;16.42;;;10.70;99.90;;;;;;5002796;28;20084;-64
2022/03/16 09:24:56;;;;;;;22.13;16.75;;;10.80;99.90;;;;;;5017726;28;20050;-63
2022/03/16 09:27:23;;;;;;;22.92;16.65;;;10.90;99.90;;;;;;5017623;28;20064;-63
2022/03/16 09:29:49;;;;;;;23.05;15.73;;;11.00;99.90;;;;;;5017910;28;20080;-65
2022/03/16 09:32:14;;;;;;;21.83;16.70;;;11.10;99.90;;;;;;5014721;28;20097;-63
2022/03/16 09:34:42;;;;;;;21.23;16.27;;;11.30;99.90;;;;;;4998230;28;20050;-64
2022/03/16 09:37:09;;;;;;;23.42;16.45;;;11.40;99.90;;;;;;4999355;28;20113;-63
2022/03/16 09:39:36;;;;;;;20.95;16.60;;;11.50;99.90;;;;;;5017739;28;20038;-63
2022/03/16 09:42:03;;;;;;;21.08;15.27;;;11.60;99.90;;;;;;5016318;28;20191;-63
2022/03/16 09:44:30;;;;;;;23.83;15.93;;;11.70;99.90;;;;;;4998003;28;20046;-64
2022/03/16 09:46:57;;;;;;;21.75;16.17;;;11.70;99.90;;;;;;4997791;28;20061;-63
2022/03/16 09:49:23;;;;;;;18.25;13.27;;;11.80;99.90;;;;;;4997532;28;20483;-62
2022/03/16 09:51:53;;;;;;;20.25;14.20;;;11.90;99.90;;;;;;4997298;28;20376;-64
2022/03/16 09:54:22;;;;;;;18.65;12.73;;;11.90;99.90;;;;;;4997840;28;20042;-65
2022/03/16 09:56:52;;;;;;;16.52;12.30;;;12.00;99.90;;;;;;4997978;28;20050;-66
2022/03/16 09:59:19;;;;;;;15.60;11.73;;;12.00;99.90;;;;;;4964720;28;20125;-63
2022/03/16 10:01:47;;;;;;;16.42;12.65;;;12.10;99.90;;;;;;4997361;28;20043;-64
2022/03/16 10:04:27;;;;;;;15.93;12.00;;;12.10;99.90;;;;;;5015576;28;20137;-63
2022/03/16 10:06:55;;;;;;;13.43;10.43;;;12.20;99.90;;;;;;5017285;28;20038;-64
2022/03/16 10:15:12;;;;;;;15.75;11.75;;;12.40;99.90;;;;;;5012398;28;20048;-65
2022/03/16 10:17:49;;;;;;;15.10;10.82;;;12.50;99.90;;;;;;5016795;28;20041;-63
2022/03/16 10:20:26;;;;;;;17.80;12.40;;;12.50;99.90;;;;;;5016626;28;20068;-64
2022/03/16 10:22:54;;;;;;;16.73;11.25;;;12.60;99.90;;;;;;5015760;28;20370;-64
2022/03/16 10:25:20;;;;;;;16.23;10.55;;;12.70;99.90;;;;;;5016633;28;20526;-65
2022/03/16 10:27:46;;;;;;;14.75;10.02;;;12.70;99.90;;;;;;5016573;28;20458;-64
2022/03/16 10:30:15;;;;;;;13.98;10.13;;;12.80;99.90;;;;;;5016135;28;20048;-63
2022/03/16 10:32:54;;;;;;;13.05;9.90;;;12.90;99.90;;;;;;5010942;28;20066;-64
2022/03/16 10:35:21;;;;;;;12.93;9.32;;;12.90;99.90;;;;;;4996804;28;20485;-65
2022/03/16 10:37:49;;;;;;;15.80;10.63;;;12.90;99.90;;;;;;4985893;28;20049;-63
2022/03/16 10:40:20;;;;;;;16.92;10.48;;;13.00;99.90;;;;;;4999136;28;20329;-63
2022/03/16 10:48:18;;;;;;;13.85;10.02;;;13.30;99.90;;;;;;5008581;28;19925;-63
2022/03/16 10:50:44;;;;;;;12.38;9.82;;;13.40;99.90;;;;;;4999133;28;20050;-64
2022/03/16 10:53:11;;;;;;;14.05;9.75;;;13.40;99.90;;;;;;4991141;28;20046;-65
2022/03/16 10:55:41;;;;;;;15.68;10.32;;;13.50;99.90;;;;;;5016157;28;20061;-64
2022/03/16 10:58:08;;;;;;;13.15;10.10;;;13.60;99.90;;;;;;5016227;28;20428;-64
2022/03/16 11:00:38;;;;;;;15.40;9.70;;;13.60;99.90;;;;;;4997732;28;20038;-64
2022/03/16 11:03:09;;;;;;;15.98;11.73;;;13.60;99.90;;;;;;4991200;28;20051;-64
2022/03/16 11:05:38;;;;;;;14.13;9.90;;;13.50;99.90;;;;;;5016164;28;20049;-64
2022/03/16 11:08:06;;;;;;;14.40;9.63;;;13.60;99.90;;;;;;5016046;28;20069;-64
2022/03/16 11:10:35;;;;;;;13.80;10.23;;;13.70;99.90;;;;;;5015406;28;20035;-66
2022/03/16 11:15:49;;;;;;;11.68;9.05;;;13.90;99.90;;;;;;4996468;28;20133;-64
2022/03/16 11:18:19;;;;;;;15.00;9.23;;;14.00;99.90;;;;;;4996271;28;20038;-64
2022/03/16 11:20:50;;;;;;;12.50;9.10;;;14.00;99.90;;;;;;4995957;28;20410;-65
2022/03/16 11:26:28;;;;;;;13.15;9.43;;;14.00;99.90;;;;;;5015827;28;20116;-65
2022/03/16 11:29:07;;;;;;;13.30;9.70;;;14.10;99.90;;;;;;5000127;28;20050;-65
2022/03/16 11:31:34;;;;;;;13.35;9.75;;;14.20;99.90;;;;;;4995585;28;20045;-64
2022/03/16 11:34:08;;;;;;;13.50;9.90;;;14.20;99.90;;;;;;5011445;28;20048;-65
2022/03/16 11:36:41;;;;;;;13.02;9.73;;;14.20;99.90;;;;;;5015215;28;20042;-65
2022/03/16 11:39:23;;;;;;;12.00;9.43;;;14.10;99.90;;;;;;4997687;28;20594;-64
2022/03/16 11:41:56;;;;;;;13.27;8.88;;;14.30;99.90;;;;;;4995569;28;20038;-65
2022/03/16 11:44:28;;;;;;;12.45;8.80;;;14.30;99.90;;;;;;5014124;28;20073;-64
2022/03/16 11:47:17;;;;;;;13.35;9.15;;;14.40;99.90;;;;;;5015123;28;20169;-64
2022/03/16 11:50:11;;;;;;;12.27;8.93;;;14.40;99.90;;;;;;5011229;28;20054;-66
2022/03/16 11:53:05;;;;;;;14.98;9.35;;;14.40;99.90;;;;;;5010640;28;20040;-65
2022/03/16 11:55:43;;;;;;;11.73;8.43;;;14.30;99.90;;;;;;4995457;28;20097;-65
2022/03/16 11:58:25;;;;;;;11.77;8.73;;;14.30;99.90;;;;;;4995677;28;20052;-67
2022/03/16 12:01:27;;;;;;;13.88;9.75;;;14.40;99.90;;;;;;4994765;28;20046;-65
2022/03/16 12:04:15;;;;;;;11.82;8.25;;;14.40;99.90;;;;;;4995969;28;20038;-65
2022/03/16 12:06:51;;;;;;;11.68;9.05;;;14.40;99.90;;;;;;4995123;28;20383;-65
2022/03/16 12:09:20;;;;;;;13.05;9.48;;;14.40;99.90;;;;;;4978058;28;20121;-65
2022/03/16 12:14:58;;;;;;;12.43;9.27;;;14.40;99.90;;;;;;4978136;28;20057;-65
2022/03/16 12:17:24;;;;;;;12.88;9.15;;;14.30;99.90;;;;;;4995038;28;20046;-65
2022/03/16 12:20:10;;;;;;;12.85;9.55;;;14.40;99.90;;;;;;4994999;28;20482;-65
2022/03/16 12:22:47;;;;;;;13.75;9.45;;;14.40;99.90;;;;;;4995490;28;20045;-64
2022/03/16 12:25:26;;;;;;;13.18;9.95;;;14.50;99.90;;;;;;4995312;28;20053;-65
2022/03/16 12:31:03;;;;;;;13.68;9.35;;;14.60;99.90;;;;;;4994763;28;20047;-66
2022/03/16 12:33:31;;;;;;;13.18;9.65;;;14.40;99.90;;;;;;5005556;28;20493;-66
2022/03/16 12:36:04;;;;;;;14.38;9.88;;;14.40;99.90;;;;;;4996978;28;20112;-65
2022/03/16 12:38:32;;;;;;;13.90;10.00;;;14.40;99.90;;;;;;5001756;28;20046;-65
2022/03/16 12:43:48;;;;;;;15.80;11.07;;;14.30;99.90;;;;;;5008334;28;20124;-66
2022/03/16 12:46:28;;;;;;;16.30;10.52;;;14.30;99.90;;;;;;5014131;28;20049;-64
2022/03/16 12:49:01;;;;;;;15.00;11.00;;;14.40;99.90;;;;;;5013192;28;20453;-64
2022/03/16 12:51:37;;;;;;;15.40;10.25;;;14.50;99.90;;;;;;5014029;28;20117;-65
2022/03/16 12:54:05;;;;;;;14.20;9.90;;;14.60;99.90;;;;;;4981270;28;20103;-65
2022/03/16 12:56:41;;;;;;;15.63;10.80;;;14.60;99.90;;;;;;4994675;28;20042;-65
2022/03/16 12:59:11;;;;;;;16.27;11.20;;;14.60;99.90;;;;;;4994400;28;20379;-65
2022/03/16 13:01:37;;;;;;;13.52;10.05;;;14.50;99.90;;;;;;4997852;28;20033;-65
2022/03/16 13:04:08;;;;;;;13.95;10.02;;;14.60;99.90;;;;;;4998566;28;20042;-65